Time;durP1;ratioP1;P1;durP2;ratioP2;P2;SDS_P1;SDS_P2;PMS_P1;PMS_P2;Temp;Humidity;BMP_temperature;BMP_pressure;BME280_temperature;BME280_humidity;BME280_pressure;Samples;Min_cycle;Max_cycle;Signal;HPM_P1;HPM_P2
2021/06/05 00:02:28;;;;;;;25.63;15.52;;;;;;;;;;5053156;28;20041;-71
2021/06/05 00:04:58;;;;;;;23.35;15.52;;;;;;;;;;5058508;28;20028;-71
2021/06/05 00:07:25;;;;;;;25.08;16.67;;;;;;;;;;5057286;28;20116;-71
2021/06/05 00:09:52;;;;;;;27.10;16.60;;;;;;;;;;5054581;28;20075;-71
2021/06/05 00:12:20;;;;;;;26.48;14.65;;;;;;;;;;5052504;28;20036;-71
2021/06/05 00:14:46;;;;;;;33.03;16.05;;;;;;;;;;5045030;28;20083;-71
2021/06/05 00:17:13;;;;;;;24.70;15.40;;;;;;;;;;5020476;28;20045;-71
2021/06/05 00:19:39;;;;;;;26.20;17.02;;;;;;;;;;5043338;28;20480;-71
2021/06/05 00:22:06;;;;;;;28.35;15.88;;;;;;;;;;5049219;28;20045;-71
2021/06/05 00:24:32;;;;;;;32.03;17.10;;;;;;;;;;5052091;28;20033;-71
2021/06/05 00:26:59;;;;;;;25.42;15.25;;;;;;;;;;5047333;28;20384;-71
2021/06/05 00:29:25;;;;;;;36.85;16.60;;;;;;;;;;5053580;28;20403;-71
2021/06/05 00:31:51;;;;;;;27.33;16.73;;;;;;;;;;5053792;28;20047;-71
2021/06/05 00:34:18;;;;;;;25.42;15.02;;;;;;;;;;5051392;28;20041;-71
2021/06/05 00:36:44;;;;;;;22.88;14.52;;;;;;;;;;5053146;28;20037;-71
2021/06/05 00:39:11;;;;;;;28.70;15.23;;;;;;;;;;5056406;28;20407;-71
2021/06/05 00:41:38;;;;;;;22.85;13.48;;;;;;;;;;5056402;28;20037;-71
2021/06/05 00:44:06;;;;;;;18.38;13.73;;;;;;;;;;5047375;28;20064;-71
2021/06/05 00:46:33;;;;;;;28.25;12.63;;;;;;;;;;5057265;28;20044;-71
2021/06/05 00:49:00;;;;;;;28.98;13.40;;;;;;;;;;5045950;28;20063;-71
2021/06/05 00:51:31;;;;;;;21.60;12.57;;;;;;;;;;5041741;28;20052;-71
2021/06/05 00:53:59;;;;;;;25.85;13.30;;;;;;;;;;5054562;28;20060;-71
2021/06/05 00:56:26;;;;;;;27.48;14.25;;;;;;;;;;5053534;28;20060;-71
2021/06/05 00:58:52;;;;;;;21.85;12.85;;;;;;;;;;5053929;28;20396;-71
2021/06/05 01:01:22;;;;;;;22.27;13.63;;;;;;;;;;5055555;28;20595;-71
2021/06/05 01:03:48;;;;;;;34.42;14.05;;;;;;;;;;5056806;28;20399;-71
2021/06/05 01:06:18;;;;;;;40.63;14.05;;;;;;;;;;5056668;28;20496;-71
2021/06/05 01:08:53;;;;;;;44.58;15.90;;;;;;;;;;5053040;28;20071;-71
2021/06/05 01:11:22;;;;;;;30.77;14.23;;;;;;;;;;5059273;28;20045;-71
2021/06/05 01:13:52;;;;;;;25.95;15.32;;;;;;;;;;5036398;28;20120;-71
2021/06/05 01:16:23;;;;;;;32.75;15.00;;;;;;;;;;5040721;28;20143;-71
2021/06/05 01:18:51;;;;;;;26.25;14.52;;;;;;;;;;5045382;28;20051;-71
2021/06/05 01:21:17;;;;;;;29.13;15.68;;;;;;;;;;5049716;28;20190;-71
2021/06/05 01:23:59;;;;;;;27.20;14.65;;;;;;;;;;5058683;28;20066;-71
2021/06/05 01:26:29;;;;;;;29.35;14.68;;;;;;;;;;5040884;28;20049;-71
2021/06/05 01:29:01;;;;;;;37.17;14.82;;;;;;;;;;5056831;28;20045;-71
2021/06/05 01:31:29;;;;;;;35.60;15.73;;;;;;;;;;5052377;28;20056;-71
2021/06/05 01:33:56;;;;;;;25.63;14.82;;;;;;;;;;5053053;28;20159;-71
2021/06/05 01:36:24;;;;;;;25.65;14.55;;;;;;;;;;5052613;28;20037;-71
2021/06/05 01:38:52;;;;;;;26.33;15.63;;;;;;;;;;5049875;28;20095;-71
2021/06/05 01:41:20;;;;;;;28.73;15.43;;;;;;;;;;5038839;28;20037;-71
2021/06/05 01:43:47;;;;;;;28.63;15.95;;;;;;;;;;5052798;28;20048;-71
2021/06/05 01:46:14;;;;;;;33.13;16.55;;;;;;;;;;5047844;28;20049;-71
2021/06/05 01:48:41;;;;;;;27.15;16.00;;;;;;;;;;5047202;28;20040;-71
2021/06/05 01:51:09;;;;;;;31.33;16.02;;;;;;;;;;5044130;28;20203;-71
2021/06/05 01:53:39;;;;;;;26.08;16.17;;;;;;;;;;5052611;28;20401;-71
2021/06/05 01:56:13;;;;;;;28.42;16.65;;;;;;;;;;5057118;28;20128;-71
2021/06/05 01:58:40;;;;;;;26.38;16.70;;;;;;;;;;5050938;28;20068;-71
2021/06/05 02:01:07;;;;;;;26.40;16.65;;;;;;;;;;5055300;28;21954;-71
2021/06/05 02:03:33;;;;;;;30.20;16.00;;;;;;;;;;5054425;28;20067;-71
2021/06/05 02:06:00;;;;;;;29.48;16.10;;;;;;;;;;5059675;28;20101;-71
2021/06/05 02:08:28;;;;;;;35.78;15.30;;;;;;;;;;5057502;28;20053;-71
2021/06/05 02:11:00;;;;;;;34.10;15.60;;;;;;;;;;5052077;28;20033;-71
2021/06/05 02:13:29;;;;;;;23.98;15.13;;;;;;;;;;5048766;28;20059;-71
2021/06/05 02:15:58;;;;;;;22.63;15.20;;;;;;;;;;5041857;28;20068;-71
2021/06/05 02:18:28;;;;;;;29.00;16.05;;;;;;;;;;5052194;28;20050;-71
2021/06/05 02:20:59;;;;;;;24.55;16.58;;;;;;;;;;5053956;28;20048;-71
2021/06/05 02:23:39;;;;;;;25.35;16.33;;;;;;;;;;5055675;28;20040;-71
2021/06/05 02:26:06;;;;;;;26.60;16.10;;;;;;;;;;5055979;28;20064;-71
2021/06/05 02:28:32;;;;;;;30.75;17.88;;;;;;;;;;5051822;28;20041;-71
2021/06/05 02:30:59;;;;;;;28.38;16.52;;;;;;;;;;5051626;28;20037;-71
2021/06/05 02:33:26;;;;;;;29.15;18.08;;;;;;;;;;5051250;28;20060;-71
2021/06/05 02:35:54;;;;;;;34.03;20.02;;;;;;;;;;5045680;28;20443;-71
2021/06/05 02:38:21;;;;;;;38.10;21.23;;;;;;;;;;5040179;28;20075;-71
2021/06/05 02:40:47;;;;;;;46.28;22.80;;;;;;;;;;5024652;28;20104;-71
2021/06/05 02:43:16;;;;;;;39.40;22.92;;;;;;;;;;5052810;28;20045;-71
2021/06/05 02:45:48;;;;;;;35.22;21.52;;;;;;;;;;5051660;28;20049;-71
2021/06/05 02:48:14;;;;;;;39.80;21.45;;;;;;;;;;5051283;28;20550;-71
2021/06/05 02:50:43;;;;;;;33.67;19.85;;;;;;;;;;5049961;28;20075;-71
2021/06/05 02:53:09;;;;;;;38.25;18.30;;;;;;;;;;5057333;28;20051;-71
2021/06/05 02:55:36;;;;;;;29.42;16.13;;;;;;;;;;5049531;28;20121;-71
2021/06/05 02:58:03;;;;;;;23.73;16.10;;;;;;;;;;5052009;28;20109;-71
2021/06/05 03:00:32;;;;;;;30.60;17.00;;;;;;;;;;5060119;28;20074;-71
2021/06/05 03:02:59;;;;;;;22.08;15.27;;;;;;;;;;5064623;28;20040;-71
2021/06/05 03:05:26;;;;;;;24.15;15.60;;;;;;;;;;5053403;28;20128;-71
2021/06/05 03:07:55;;;;;;;31.60;16.17;;;;;;;;;;5050940;28;20166;-71
2021/06/05 03:10:23;;;;;;;27.73;16.30;;;;;;;;;;5054024;28;20076;-71
2021/06/05 03:12:50;;;;;;;51.90;18.45;;;;;;;;;;5053094;28;20049;-71
2021/06/05 03:15:16;;;;;;;32.15;18.55;;;;;;;;;;5043794;28;20056;-71
2021/06/05 03:17:43;;;;;;;43.00;19.63;;;;;;;;;;5038023;28;20056;-71
2021/06/05 03:20:11;;;;;;;33.42;20.52;;;;;;;;;;5038543;28;20131;-71
2021/06/05 03:22:38;;;;;;;32.67;21.00;;;;;;;;;;5042198;28;20048;-71
2021/06/05 03:25:06;;;;;;;30.08;18.67;;;;;;;;;;5053716;28;20068;-71
2021/06/05 03:27:43;;;;;;;30.13;17.17;;;;;;;;;;5047947;28;20044;-71
2021/06/05 03:30:11;;;;;;;24.83;17.50;;;;;;;;;;5054611;28;19921;-71
2021/06/05 03:32:37;;;;;;;20.67;15.07;;;;;;;;;;5057504;28;20041;-71
2021/06/05 03:35:05;;;;;;;25.45;15.65;;;;;;;;;;5050941;28;20098;-71
2021/06/05 03:37:31;;;;;;;24.15;15.18;;;;;;;;;;5048656;28;20158;-71
2021/06/05 03:39:58;;;;;;;23.38;15.48;;;;;;;;;;5050160;28;20041;-71
2021/06/05 03:42:25;;;;;;;28.08;15.50;;;;;;;;;;5052531;28;20037;-71
2021/06/05 03:44:55;;;;;;;29.58;17.13;;;;;;;;;;5024766;28;20225;-71
2021/06/05 03:47:22;;;;;;;38.03;17.52;;;;;;;;;;5038710;28;21744;-71
2021/06/05 03:49:52;;;;;;;31.77;17.58;;;;;;;;;;5020796;28;20076;-71
2021/06/05 03:52:22;;;;;;;27.50;16.98;;;;;;;;;;5038997;28;20116;-71
2021/06/05 03:54:51;;;;;;;27.67;17.45;;;;;;;;;;5046603;28;20703;-71
2021/06/05 03:57:18;;;;;;;28.17;17.63;;;;;;;;;;5052516;28;20068;-71
2021/06/05 03:59:44;;;;;;;26.33;16.27;;;;;;;;;;5048317;28;20057;-71
2021/06/05 04:02:11;;;;;;;29.30;18.02;;;;;;;;;;5053697;28;20040;-71
2021/06/05 04:04:37;;;;;;;27.38;18.42;;;;;;;;;;5049728;28;20134;-71
2021/06/05 04:07:08;;;;;;;28.52;17.23;;;;;;;;;;5051727;28;20160;-71
2021/06/05 04:09:35;;;;;;;28.35;16.75;;;;;;;;;;5053217;28;20472;-71
2021/06/05 04:12:02;;;;;;;29.00;17.15;;;;;;;;;;5051787;28;20037;-71
2021/06/05 04:14:29;;;;;;;29.60;17.25;;;;;;;;;;5055452;28;20094;-71
2021/06/05 04:16:55;;;;;;;28.92;16.58;;;;;;;;;;5053540;28;20111;-71
2021/06/05 04:19:21;;;;;;;33.05;17.33;;;;;;;;;;5051175;28;20049;-71
2021/06/05 04:21:48;;;;;;;32.80;15.65;;;;;;;;;;5052842;28;20044;-71
2021/06/05 04:24:14;;;;;;;31.75;16.33;;;;;;;;;;5044607;28;20048;-71
2021/06/05 04:26:41;;;;;;;29.08;17.00;;;;;;;;;;5045676;28;20054;-71
2021/06/05 04:29:07;;;;;;;28.17;15.95;;;;;;;;;;5047085;28;20049;-71
2021/06/05 04:31:33;;;;;;;27.63;15.13;;;;;;;;;;5055681;28;20487;-71
2021/06/05 04:34:00;;;;;;;30.52;14.75;;;;;;;;;;5054551;28;20494;-71
2021/06/05 04:36:26;;;;;;;29.33;14.60;;;;;;;;;;5056265;28;20128;-71
2021/06/05 04:38:52;;;;;;;33.53;15.50;;;;;;;;;;5055903;28;20036;-71
2021/06/05 04:41:20;;;;;;;27.38;14.30;;;;;;;;;;5052431;28;20044;-72
2021/06/05 04:43:46;;;;;;;29.20;15.30;;;;;;;;;;5061177;28;20052;-72
2021/06/05 04:46:13;;;;;;;29.20;16.45;;;;;;;;;;5055696;28;20064;-71
2021/06/05 04:48:41;;;;;;;27.05;15.50;;;;;;;;;;5058730;28;20114;-72
2021/06/05 04:51:07;;;;;;;27.08;15.77;;;;;;;;;;5056090;28;20049;-72
2021/06/05 04:53:34;;;;;;;33.60;16.85;;;;;;;;;;5062809;28;20060;-72
2021/06/05 04:56:01;;;;;;;30.85;16.30;;;;;;;;;;5066496;28;20056;-71
2021/06/05 04:58:30;;;;;;;27.95;15.80;;;;;;;;;;5065363;28;20075;-71
2021/06/05 05:00:56;;;;;;;27.92;15.25;;;;;;;;;;5063615;28;20044;-72
2021/06/05 05:03:25;;;;;;;23.35;14.52;;;;;;;;;;5062968;28;20048;-72
2021/06/05 05:05:53;;;;;;;33.83;16.67;;;;;;;;;;5062695;28;20040;-72
2021/06/05 05:08:20;;;;;;;28.23;16.05;;;;;;;;;;5066112;28;20049;-72
2021/06/05 05:10:48;;;;;;;29.75;17.05;;;;;;;;;;5051833;28;20057;-72
2021/06/05 05:13:17;;;;;;;28.52;15.80;;;;;;;;;;5065847;28;20546;-73
2021/06/05 05:15:44;;;;;;;29.45;15.93;;;;;;;;;;5046479;28;20115;-72
2021/06/05 05:18:11;;;;;;;26.83;14.95;;;;;;;;;;5060864;28;20040;-72
2021/06/05 05:20:38;;;;;;;29.55;14.52;;;;;;;;;;5045032;28;20059;-72
2021/06/05 05:23:05;;;;;;;27.83;14.68;;;;;;;;;;5058328;28;20135;-72
2021/06/05 05:25:31;;;;;;;25.80;14.85;;;;;;;;;;5060827;28;20040;-72
2021/06/05 05:27:58;;;;;;;28.23;15.00;;;;;;;;;;5061357;28;20116;-72
2021/06/05 05:30:26;;;;;;;34.00;16.00;;;;;;;;;;5062826;28;20048;-72
2021/06/05 05:32:53;;;;;;;49.53;19.33;;;;;;;;;;5064270;28;20044;-72
2021/06/05 05:35:19;;;;;;;38.58;16.10;;;;;;;;;;5051437;28;20507;-72
2021/06/05 05:37:46;;;;;;;37.60;15.80;;;;;;;;;;5046259;28;20048;-71
2021/06/05 05:40:13;;;;;;;39.35;15.55;;;;;;;;;;5060158;28;20032;-71
2021/06/05 05:42:39;;;;;;;23.55;12.85;;;;;;;;;;5063926;28;20515;-72
2021/06/05 05:45:06;;;;;;;22.77;12.55;;;;;;;;;;5054176;28;20075;-72
2021/06/05 05:47:32;;;;;;;38.22;17.80;;;;;;;;;;5068444;28;20049;-73
2021/06/05 05:49:59;;;;;;;32.80;14.68;;;;;;;;;;5058671;28;20053;-72
2021/06/05 05:52:28;;;;;;;38.92;15.50;;;;;;;;;;5054024;28;20068;-72
2021/06/05 05:54:54;;;;;;;57.75;17.27;;;;;;;;;;5068014;28;20109;-72
2021/06/05 05:57:21;;;;;;;49.88;16.98;;;;;;;;;;5057342;28;20516;-72
2021/06/05 05:59:48;;;;;;;22.55;12.80;;;;;;;;;;5058322;28;20056;-72
2021/06/05 06:02:14;;;;;;;44.38;15.65;;;;;;;;;;5057569;28;20033;-72
2021/06/05 06:04:40;;;;;;;85.07;19.40;;;;;;;;;;5063310;28;20072;-72
2021/06/05 06:07:06;;;;;;;53.17;18.42;;;;;;;;;;5051148;28;20452;-73
2021/06/05 06:09:33;;;;;;;29.73;12.60;;;;;;;;;;5058642;28;20043;-74
2021/06/05 06:12:00;;;;;;;17.73;7.05;;;;;;;;;;5048665;28;20040;-73
2021/06/05 06:14:26;;;;;;;11.18;5.55;;;;;;;;;;5049741;28;20052;-72
2021/06/05 06:16:52;;;;;;;13.38;7.55;;;;;;;;;;5066505;28;20068;-72
2021/06/05 06:19:19;;;;;;;13.85;7.07;;;;;;;;;;5053139;28;20106;-72
2021/06/05 06:21:45;;;;;;;12.13;5.53;;;;;;;;;;5060566;28;20044;-72
2021/06/05 06:24:12;;;;;;;23.90;5.70;;;;;;;;;;5063121;28;20035;-73
2021/06/05 06:26:39;;;;;;;10.90;5.25;;;;;;;;;;5042720;28;20467;-73
2021/06/05 06:29:12;;;;;;;10.32;4.85;;;;;;;;;;5050241;28;20037;-73
2021/06/05 06:31:38;;;;;;;9.43;5.90;;;;;;;;;;5052492;28;20130;-72
2021/06/05 06:34:04;;;;;;;10.75;6.07;;;;;;;;;;5054225;28;20049;-72
2021/06/05 06:36:31;;;;;;;8.43;4.78;;;;;;;;;;5045551;28;20063;-72
2021/06/05 06:38:57;;;;;;;8.70;3.40;;;;;;;;;;5053028;28;20099;-72
2021/06/05 06:41:27;;;;;;;7.32;2.97;;;;;;;;;;5052090;28;20063;-72
2021/06/05 06:43:53;;;;;;;5.28;2.50;;;;;;;;;;5054696;28;20052;-74
2021/06/05 06:46:22;;;;;;;5.47;2.40;;;;;;;;;;5054416;28;20139;-73
2021/06/05 06:48:50;;;;;;;13.88;3.58;;;;;;;;;;5055270;28;20465;-73
2021/06/05 06:51:16;;;;;;;11.90;2.78;;;;;;;;;;5053828;28;20067;-72
2021/06/05 06:53:43;;;;;;;10.38;2.63;;;;;;;;;;5061554;28;20051;-73
2021/06/05 06:56:09;;;;;;;5.68;2.90;;;;;;;;;;5055967;28;20055;-73
2021/06/05 06:58:36;;;;;;;5.75;3.20;;;;;;;;;;5060882;28;20041;-73
2021/06/05 07:01:03;;;;;;;14.32;5.63;;;;;;;;;;5056203;28;20127;-72
2021/06/05 07:03:30;;;;;;;11.10;7.65;;;;;;;;;;5055122;28;20087;-73
2021/06/05 07:05:56;;;;;;;8.30;5.88;;;;;;;;;;5061277;28;20040;-72
2021/06/05 07:08:27;;;;;;;9.88;6.32;;;;;;;;;;5059545;28;20044;-73
2021/06/05 07:10:56;;;;;;;8.65;6.18;;;;;;;;;;5059606;28;20463;-72
2021/06/05 07:13:24;;;;;;;11.32;6.63;;;;;;;;;;5057778;28;20076;-72
2021/06/05 07:15:51;;;;;;;9.40;6.57;;;;;;;;;;5061713;28;20650;-73
2021/06/05 07:18:18;;;;;;;12.15;7.78;;;;;;;;;;5063979;28;20150;-73
2021/06/05 07:20:45;;;;;;;9.00;6.55;;;;;;;;;;5061843;28;20040;-83
2021/06/05 07:23:12;;;;;;;11.18;8.13;;;;;;;;;;5055930;28;20135;-84
2021/06/05 07:25:38;;;;;;;9.27;7.13;;;;;;;;;;5050898;28;20116;-84
2021/06/05 07:28:12;;;;;;;12.02;7.80;;;;;;;;;;5051196;28;20049;-84
2021/06/05 07:30:38;;;;;;;;;;;;;;;;;;5052311;28;20036;-84
2021/06/05 07:33:04;;;;;;;9.10;6.03;;;;;;;;;;5058549;28;20041;-84
2021/06/05 07:35:31;;;;;;;8.75;6.65;;;;;;;;;;5052065;28;20037;-84
2021/06/05 07:37:57;;;;;;;9.15;7.47;;;;;;;;;;5050688;28;20040;-84
2021/06/05 07:40:23;;;;;;;10.65;8.10;;;;;;;;;;5051974;28;20468;-83
2021/06/05 07:42:50;;;;;;;9.77;7.18;;;;;;;;;;5058385;28;20047;-86
2021/06/05 07:45:16;;;;;;;10.90;7.75;;;;;;;;;;5051048;28;20045;-85
2021/06/05 07:47:42;;;;;;;11.05;7.85;;;;;;;;;;5067344;28;20085;-84
2021/06/05 07:50:10;;;;;;;8.70;7.15;;;;;;;;;;5073874;28;20080;-85
2021/06/05 07:52:37;;;;;;;9.38;6.78;;;;;;;;;;5072897;28;20055;-80
2021/06/05 07:55:04;;;;;;;8.25;7.10;;;;;;;;;;5074223;28;20063;-85
2021/06/05 07:57:30;;;;;;;11.98;8.50;;;;;;;;;;5074537;28;20036;-85
2021/06/05 07:59:56;;;;;;;11.07;9.02;;;;;;;;;;5073759;28;20477;-86
2021/06/05 08:02:23;;;;;;;12.38;10.10;;;;;;;;;;5073899;28;20492;-87
2021/06/05 08:04:50;;;;;;;14.90;10.18;;;;;;;;;;5073652;28;20395;-87
2021/06/05 08:07:16;;;;;;;14.77;11.82;;;;;;;;;;5073451;28;20099;-87
2021/06/05 08:09:43;;;;;;;13.40;11.65;;;;;;;;;;5073462;28;20049;-86
2021/06/05 08:12:09;;;;;;;13.73;11.32;;;;;;;;;;5073860;28;20040;-86
2021/06/05 08:14:36;;;;;;;19.10;15.10;;;;;;;;;;5072980;28;20455;-87
2021/06/05 08:17:02;;;;;;;19.67;15.38;;;;;;;;;;5067785;28;20044;-86
2021/06/05 08:19:29;;;;;;;20.70;16.48;;;;;;;;;;5057011;28;20049;-87
2021/06/05 08:21:55;;;;;;;29.67;21.08;;;;;;;;;;5054297;28;20040;-86
2021/06/05 08:24:22;;;;;;;30.50;22.42;;;;;;;;;;5058105;28;20044;-87
2021/06/05 08:26:50;;;;;;;29.45;22.13;;;;;;;;;;5063779;28;20464;-86
2021/06/05 08:29:17;;;;;;;30.10;20.83;;;;;;;;;;5062668;28;20040;-86
2021/06/05 08:31:43;;;;;;;29.17;19.92;;;;;;;;;;5056893;28;20404;-86
2021/06/05 08:34:09;;;;;;;26.83;20.27;;;;;;;;;;5055534;28;20044;-85
2021/06/05 08:36:36;;;;;;;23.48;18.45;;;;;;;;;;5052851;28;20045;-87
2021/06/05 08:39:04;;;;;;;31.25;17.63;;;;;;;;;;5057414;28;20079;-87
2021/06/05 08:41:43;;;;;;;22.35;17.95;;;;;;;;;;5061985;28;20475;-87
2021/06/05 08:44:12;;;;;;;22.33;15.90;;;;;;;;;;5059093;28;20068;-86
2021/06/05 08:46:41;;;;;;;20.73;16.27;;;;;;;;;;5058484;28;20033;-86
2021/06/05 08:49:11;;;;;;;20.75;17.25;;;;;;;;;;5054667;28;20048;-86
2021/06/05 08:51:50;;;;;;;27.15;18.02;;;;;;;;;;5055669;28;20057;-87
2021/06/05 08:54:33;;;;;;;20.52;17.65;;;;;;;;;;5055096;28;20055;-86
2021/06/05 08:57:01;;;;;;;20.85;17.15;;;;;;;;;;5034531;28;20044;-86
2021/06/05 08:59:27;;;;;;;20.38;18.15;;;;;;;;;;5063881;28;20041;-87
2021/06/05 09:01:55;;;;;;;21.95;17.38;;;;;;;;;;5051914;28;20178;-84
2021/06/05 09:04:23;;;;;;;21.40;18.15;;;;;;;;;;5055090;28;20083;-80
2021/06/05 09:06:56;;;;;;;22.58;18.77;;;;;;;;;;5055141;28;20049;-80
2021/06/05 09:09:25;;;;;;;24.73;18.55;;;;;;;;;;5055597;28;20083;-71
2021/06/05 09:11:52;;;;;;;22.10;19.15;;;;;;;;;;5056076;28;20041;-75
2021/06/05 09:14:18;;;;;;;25.30;21.88;;;;;;;;;;5063226;28;20051;-74
2021/06/05 09:16:47;;;;;;;25.17;21.00;;;;;;;;;;5056265;28;20036;-75
2021/06/05 09:19:27;;;;;;;25.95;22.52;;;;;;;;;;5052815;28;20049;-74
2021/06/05 09:22:01;;;;;;;27.85;23.85;;;;;;;;;;5058266;28;20112;-74
2021/06/05 09:24:30;;;;;;;29.85;24.92;;;;;;;;;;5052168;28;20072;-75
2021/06/05 09:27:02;;;;;;;27.17;23.67;;;;;;;;;;5054825;28;20115;-74
2021/06/05 09:29:30;;;;;;;31.35;27.95;;;;;;;;;;5059138;28;20091;-74
2021/06/05 09:31:59;;;;;;;29.50;26.33;;;;;;;;;;5053629;28;20106;-74
2021/06/05 09:34:31;;;;;;;26.90;23.80;;;;;;;;;;5058545;28;20049;-74
2021/06/05 09:36:57;;;;;;;33.63;29.85;;;;;;;;;;5052348;28;20101;-74
2021/06/05 09:39:36;;;;;;;36.42;30.35;;;;;;;;;;5053572;28;20036;-74
2021/06/05 09:42:03;;;;;;;35.30;29.15;;;;;;;;;;5054099;28;20095;-74
2021/06/05 09:44:33;;;;;;;32.53;26.33;;;;;;;;;;5059778;28;20123;-74
2021/06/05 09:47:02;;;;;;;35.35;29.63;;;;;;;;;;5056116;28;20041;-75
2021/06/05 09:49:31;;;;;;;31.63;28.23;;;;;;;;;;5053063;28;20063;-74
2021/06/05 09:52:00;;;;;;;33.03;29.50;;;;;;;;;;5057468;28;20089;-74
2021/06/05 09:54:35;;;;;;;37.00;31.92;;;;;;;;;;5052479;28;20048;-74
2021/06/05 09:57:23;;;;;;;33.55;29.75;;;;;;;;;;5054659;28;20056;-74
2021/06/05 09:59:58;;;;;;;32.28;28.17;;;;;;;;;;5053399;28;20504;-74
2021/06/05 10:02:25;;;;;;;38.67;33.10;;;;;;;;;;5050571;28;20499;-73
2021/06/05 10:05:05;;;;;;;30.73;27.42;;;;;;;;;;5055905;28;20131;-73
2021/06/05 10:07:31;;;;;;;37.75;33.92;;;;;;;;;;5050430;28;20132;-74
2021/06/05 10:10:00;;;;;;;39.75;32.15;;;;;;;;;;5052903;28;20087;-77
2021/06/05 10:12:28;;;;;;;35.08;30.38;;;;;;;;;;5055875;28;20071;-75
2021/06/05 10:15:02;;;;;;;42.63;35.13;;;;;;;;;;5055545;28;20420;-76
2021/06/05 10:17:33;;;;;;;38.38;34.22;;;;;;;;;;5059040;28;20035;-73
2021/06/05 10:20:14;;;;;;;37.97;33.85;;;;;;;;;;5051258;28;20123;-74
2021/06/05 10:22:41;;;;;;;41.70;37.33;;;;;;;;;;5058087;28;20499;-74
2021/06/05 10:25:26;;;;;;;40.17;35.72;;;;;;;;;;5063684;28;20071;-72
2021/06/05 10:27:53;;;;;;;42.10;37.72;;;;;;;;;;5057092;28;20124;-75
2021/06/05 10:30:26;;;;;;;44.65;39.97;;;;;;;;;;5064406;28;20044;-75
2021/06/05 10:32:53;;;;;;;40.10;34.28;;;;;;;;;;5056876;28;20048;-74
2021/06/05 10:35:32;;;;;;;37.45;33.65;;;;;;;;;;5053619;28;20068;-76
2021/06/05 10:38:10;;;;;;;39.90;35.70;;;;;;;;;;5055563;28;20045;-75
2021/06/05 10:40:37;;;;;;;43.13;38.47;;;;;;;;;;5053949;28;20041;-75
2021/06/05 10:43:05;;;;;;;42.88;38.17;;;;;;;;;;5059280;28;20069;-76
2021/06/05 10:45:33;;;;;;;47.13;40.97;;;;;;;;;;5060929;28;20040;-76
2021/06/05 10:48:02;;;;;;;42.08;36.10;;;;;;;;;;5044508;28;20499;-75
2021/06/05 10:50:31;;;;;;;37.30;33.30;;;;;;;;;;5049098;28;20087;-75
2021/06/05 10:52:58;;;;;;;38.97;34.85;;;;;;;;;;5040924;28;20120;-74
2021/06/05 10:55:28;;;;;;;39.15;34.70;;;;;;;;;;5064888;28;20045;-76
2021/06/05 10:58:07;;;;;;;41.97;37.40;;;;;;;;;;5051339;28;20062;-76
2021/06/05 11:00:51;;;;;;;41.42;37.00;;;;;;;;;;5065380;28;20119;-73
2021/06/05 11:03:44;;;;;;;43.03;37.28;;;;;;;;;;5057959;28;20076;-73
2021/06/05 11:06:18;;;;;;;49.50;40.75;;;;;;;;;;5062282;28;20044;-73
2021/06/05 11:08:45;;;;;;;45.63;38.38;;;;;;;;;;5063747;28;20147;-75
2021/06/05 11:11:19;;;;;;;48.05;38.53;;;;;;;;;;5065363;28;20160;-75
2021/06/05 11:13:54;;;;;;;43.60;36.42;;;;;;;;;;5060424;28;20563;-75
2021/06/05 11:16:22;;;;;;;49.65;40.83;;;;;;;;;;5057664;28;20065;-75
2021/06/05 11:18:49;;;;;;;42.05;37.45;;;;;;;;;;5058583;28;20044;-75
2021/06/05 11:21:22;;;;;;;50.70;40.22;;;;;;;;;;5061957;28;20044;-75
2021/06/05 11:23:48;;;;;;;;;;;;;;;;;;5053056;28;20056;-75
2021/06/05 11:26:33;;;;;;;42.75;36.85;;;;;;;;;;5055662;28;19921;-75
2021/06/05 11:29:00;;;;;;;44.47;37.40;;;;;;;;;;5057312;28;20186;-76
2021/06/05 11:31:36;;;;;;;46.17;37.17;;;;;;;;;;5059275;28;20061;-76
2021/06/05 11:34:02;;;;;;;45.20;37.85;;;;;;;;;;5058465;28;20164;-75
2021/06/05 11:36:38;;;;;;;48.85;40.60;;;;;;;;;;5041266;28;20032;-75
2021/06/05 11:39:07;;;;;;;50.17;40.50;;;;;;;;;;5049145;28;20512;-73
2021/06/05 11:41:42;;;;;;;45.30;38.40;;;;;;;;;;5035104;28;20484;-73
2021/06/05 11:44:19;;;;;;;47.75;40.45;;;;;;;;;;5054830;28;20103;-73
2021/06/05 11:46:46;;;;;;;52.85;42.60;;;;;;;;;;5050197;28;20079;-73
2021/06/05 11:49:32;;;;;;;48.47;40.97;;;;;;;;;;5049308;28;20162;-75
2021/06/05 11:52:20;;;;;;;48.15;40.42;;;;;;;;;;5049018;28;20041;-75
2021/06/05 11:54:46;;;;;;;54.03;42.90;;;;;;;;;;5043009;28;20368;-75
2021/06/05 11:57:18;;;;;;;49.33;41.90;;;;;;;;;;5061485;28;20423;-75
2021/06/05 11:59:45;;;;;;;54.85;43.45;;;;;;;;;;5052273;28;20457;-76
2021/06/05 12:02:20;;;;;;;50.20;41.25;;;;;;;;;;5052090;28;20433;-76
2021/06/05 12:04:49;;;;;;;50.35;40.65;;;;;;;;;;5057840;28;20049;-76
2021/06/05 12:07:29;;;;;;;56.80;44.20;;;;;;;;;;5050664;28;20072;-76
2021/06/05 12:09:58;;;;;;;44.10;36.97;;;;;;;;;;5053042;28;20078;-75
2021/06/05 12:12:27;;;;;;;43.95;36.53;;;;;;;;;;5050326;28;20049;-82
2021/06/05 12:14:59;;;;;;;47.35;38.70;;;;;;;;;;5057015;28;20041;-76
2021/06/05 12:17:29;;;;;;;47.67;39.37;;;;;;;;;;5055634;28;20055;-75
2021/06/05 12:20:05;;;;;;;56.92;43.60;;;;;;;;;;5056521;28;20048;-76
2021/06/05 12:22:32;;;;;;;52.20;38.92;;;;;;;;;;5053743;28;20106;-76
2021/06/05 12:24:59;;;;;;;52.50;42.13;;;;;;;;;;5050281;28;20426;-75
2021/06/05 12:27:29;;;;;;;53.65;43.45;;;;;;;;;;5055269;28;20051;-75
2021/06/05 12:30:11;;;;;;;51.85;43.53;;;;;;;;;;5056715;28;20044;-75
2021/06/05 12:32:40;;;;;;;58.30;44.72;;;;;;;;;;5056343;28;20052;-75
2021/06/05 12:35:20;;;;;;;57.83;45.95;;;;;;;;;;5056196;28;20029;-76
2021/06/05 12:37:52;;;;;;;59.33;45.70;;;;;;;;;;5051657;28;20055;-75
2021/06/05 12:40:20;;;;;;;60.63;46.05;;;;;;;;;;5057721;28;20089;-75
2021/06/05 12:42:47;;;;;;;50.15;43.20;;;;;;;;;;5045165;28;20053;-75
2021/06/05 12:45:15;;;;;;;49.30;42.65;;;;;;;;;;5055139;28;20048;-76
2021/06/05 12:47:44;;;;;;;59.28;45.90;;;;;;;;;;5051367;28;20175;-76
2021/06/05 12:50:13;;;;;;;61.75;50.40;;;;;;;;;;5052344;28;20147;-76
2021/06/05 12:52:42;;;;;;;54.63;45.83;;;;;;;;;;5051697;28;20420;-75
2021/06/05 12:55:14;;;;;;;55.28;47.22;;;;;;;;;;5049752;28;20045;-75
2021/06/05 12:57:44;;;;;;;56.35;46.28;;;;;;;;;;5051179;28;20041;-75
2021/06/05 13:00:20;;;;;;;57.47;46.55;;;;;;;;;;5054446;28;20041;-75
2021/06/05 13:02:47;;;;;;;54.67;45.63;;;;;;;;;;5049145;28;20075;-75
2021/06/05 13:05:19;;;;;;;54.53;45.97;;;;;;;;;;5045422;28;20462;-76
2021/06/05 13:07:47;;;;;;;52.08;43.67;;;;;;;;;;5054895;28;20123;-77
2021/06/05 13:10:17;;;;;;;56.47;45.50;;;;;;;;;;5052810;28;20130;-75
2021/06/05 13:12:43;;;;;;;60.08;47.83;;;;;;;;;;5053140;28;20443;-75
2021/06/05 13:15:12;;;;;;;54.90;46.38;;;;;;;;;;5041170;28;20059;-75
2021/06/05 13:17:42;;;;;;;52.47;45.75;;;;;;;;;;5035225;28;20037;-75
2021/06/05 13:20:13;;;;;;;56.13;46.75;;;;;;;;;;5038647;28;21605;-75
2021/06/05 13:22:39;;;;;;;52.75;44.25;;;;;;;;;;5036825;28;20048;-75
2021/06/05 13:25:09;;;;;;;72.60;54.55;;;;;;;;;;5040343;28;20059;-75
2021/06/05 13:27:37;;;;;;;78.22;59.22;;;;;;;;;;5041062;28;20041;-75
2021/06/05 13:30:18;;;;;;;81.47;58.78;;;;;;;;;;5049140;28;20063;-75
2021/06/05 13:32:47;;;;;;;84.13;60.78;;;;;;;;;;5047636;28;20041;-75
2021/06/05 13:35:16;;;;;;;92.72;64.63;;;;;;;;;;5052084;28;20400;-75
2021/06/05 13:37:53;;;;;;;80.38;59.67;;;;;;;;;;5048986;28;20482;-75
2021/06/05 13:40:20;;;;;;;80.32;59.50;;;;;;;;;;5052851;28;20118;-75
2021/06/05 13:42:47;;;;;;;81.82;61.20;;;;;;;;;;5051707;28;20106;-75
2021/06/05 13:45:16;;;;;;;78.00;60.50;;;;;;;;;;5054011;28;20128;-75
2021/06/05 13:47:44;;;;;;;76.70;61.42;;;;;;;;;;5053424;28;20056;-75
2021/06/05 13:50:11;;;;;;;103.32;69.85;;;;;;;;;;5046117;28;20052;-77
2021/06/05 13:52:37;;;;;;;81.15;63.35;;;;;;;;;;5051172;28;20052;-74
2021/06/05 13:55:09;;;;;;;94.25;64.65;;;;;;;;;;5058298;28;20041;-75
2021/06/05 13:57:35;;;;;;;104.80;70.40;;;;;;;;;;5049811;28;20041;-75
2021/06/05 14:00:01;;;;;;;104.70;70.88;;;;;;;;;;5046177;28;20053;-75
2021/06/05 14:02:28;;;;;;;86.05;62.80;;;;;;;;;;5050758;28;20041;-75
2021/06/05 14:04:54;;;;;;;71.60;59.38;;;;;;;;;;5050477;28;20476;-75
2021/06/05 14:07:21;;;;;;;79.85;61.30;;;;;;;;;;5039406;28;20067;-75
2021/06/05 14:09:48;;;;;;;73.43;59.05;;;;;;;;;;5040386;28;20141;-75
2021/06/05 14:12:18;;;;;;;67.60;56.35;;;;;;;;;;5039234;28;20036;-75
2021/06/05 14:14:45;;;;;;;69.90;56.13;;;;;;;;;;5051754;28;20053;-75
2021/06/05 14:17:12;;;;;;;68.57;54.42;;;;;;;;;;5049645;28;20115;-75
2021/06/05 14:19:38;;;;;;;70.47;58.17;;;;;;;;;;5046972;28;20045;-75
2021/06/05 14:22:06;;;;;;;60.55;52.25;;;;;;;;;;5054881;28;20033;-75
2021/06/05 14:24:32;;;;;;;59.13;50.75;;;;;;;;;;5050787;28;20091;-75
2021/06/05 14:26:59;;;;;;;65.35;54.08;;;;;;;;;;5045540;28;20033;-75
2021/06/05 14:29:26;;;;;;;58.65;51.30;;;;;;;;;;5050359;28;20044;-75
2021/06/05 14:31:53;;;;;;;64.75;53.80;;;;;;;;;;5049522;28;20036;-75